Enter the Airport ICAO Code

Search by Airport or City

Current Weather

SARE | Resistencia International Airport

Resistencia, Chaco, Argentina

Last Update 43 Minutes Ago

Clear Sky

Temperature of 08 ēC

Light Winds from SouthEast

Temperature

08 ēC

Dew Point Temperature

08 ēC

Relative Humidity

100 %

Wind Direction

SouthEast (150ē, Without Significant Variations)

Wind Velocity

6 km/h (03 kt)

Gusts

None

Visibility

No Significant Reductions

Sea Level Pressure

1016 hPa (Hectopascals)

Layers of Clouds

None

METAR SARE 131000Z 15003KT CAVOK 08/08 Q1016

Weather Forecast

SARE | Resistencia International Airport

Resistencia, Chaco, Argentina

Forecast valid for the next 19 Hours

From now on it is expected:

Clear Sky

Light to Moderate Winds from South

Maximum Temperature

23 ēC in 7 Hours

Minimum Temperature

08 ēC in -1 Hours

TAF SARE 130500Z 1306/1406 18005KT CAVOK TX23/1318Z TN08/1310Z